sensor_id;sensor_type;location;lat;lon;timestamp;pressure;altitude;pressure_sealevel;temperature
13497;BMP180;6820;49.374;8.452;2023-03-08T00:01:29;99183.31;;;12.43
13497;BMP180;6820;49.374;8.452;2023-03-08T00:05:31;99187.47;;;12.41
13497;BMP180;6820;49.374;8.452;2023-03-08T00:09:33;99192.59;;;12.42
13497;BMP180;6820;49.374;8.452;2023-03-08T00:13:34;99213.13;;;12.48
13497;BMP180;6820;49.374;8.452;2023-03-08T00:17:37;99208.34;;;12.57
13497;BMP180;6820;49.374;8.452;2023-03-08T00:21:39;99203.53;;;12.64
13497;BMP180;6820;49.374;8.452;2023-03-08T00:25:41;99188.59;;;12.73
13497;BMP180;6820;49.374;8.452;2023-03-08T00:29:42;99190.47;;;12.77
13497;BMP180;6820;49.374;8.452;2023-03-08T00:33:44;99184.66;;;12.81
13497;BMP180;6820;49.374;8.452;2023-03-08T00:37:47;99171.03;;;12.79
13497;BMP180;6820;49.374;8.452;2023-03-08T00:41:50;99165.06;;;12.77
13497;BMP180;6820;49.374;8.452;2023-03-08T00:45:51;99174.09;;;12.71
13497;BMP180;6820;49.374;8.452;2023-03-08T00:49:55;99166.19;;;12.62
13497;BMP180;6820;49.374;8.452;2023-03-08T00:53:57;99168.47;;;12.54
13497;BMP180;6820;49.374;8.452;2023-03-08T00:57:58;99173.28;;;12.47
13497;BMP180;6820;49.374;8.452;2023-03-08T01:02:00;99164.50;;;12.38
13497;BMP180;6820;49.374;8.452;2023-03-08T01:06:10;99168.34;;;12.27
13497;BMP180;6820;49.374;8.452;2023-03-08T01:10:15;99172.69;;;12.29
13497;BMP180;6820;49.374;8.452;2023-03-08T01:14:16;99176.44;;;12.40
13497;BMP180;6820;49.374;8.452;2023-03-08T01:18:18;99172.44;;;12.47
13497;BMP180;6820;49.374;8.452;2023-03-08T01:22:20;99161.50;;;12.49
13497;BMP180;6820;49.374;8.452;2023-03-08T01:26:23;99164.78;;;12.45
13497;BMP180;6820;49.374;8.452;2023-03-08T01:30:28;99162.34;;;12.48
13497;BMP180;6820;49.374;8.452;2023-03-08T01:34:30;99143.78;;;12.50
13497;BMP180;6820;49.374;8.452;2023-03-08T01:38:31;99126.09;;;12.53
13497;BMP180;6820;49.374;8.452;2023-03-08T01:42:33;99129.59;;;12.57
13497;BMP180;6820;49.374;8.452;2023-03-08T01:46:37;99120.25;;;12.56
13497;BMP180;6820;49.374;8.452;2023-03-08T01:51:00;99121.81;;;12.52
13497;BMP180;6820;49.374;8.452;2023-03-08T01:55:05;99126.88;;;12.51
13497;BMP180;6820;49.374;8.452;2023-03-08T01:59:08;99117.50;;;12.50
13497;BMP180;6820;49.374;8.452;2023-03-08T02:03:11;99109.09;;;12.52
13497;BMP180;6820;49.374;8.452;2023-03-08T02:07:12;99106.72;;;12.57
13497;BMP180;6820;49.374;8.452;2023-03-08T02:11:16;99102.59;;;12.60
13497;BMP180;6820;49.374;8.452;2023-03-08T02:15:19;99096.56;;;12.57
13497;BMP180;6820;49.374;8.452;2023-03-08T02:19:35;99073.59;;;12.54
13497;BMP180;6820;49.374;8.452;2023-03-08T02:23:40;99079.91;;;12.40
13497;BMP180;6820;49.374;8.452;2023-03-08T02:27:42;99072.78;;;12.29
13497;BMP180;6820;49.374;8.452;2023-03-08T02:31:43;99062.44;;;12.24
13497;BMP180;6820;49.374;8.452;2023-03-08T02:35:45;99070.09;;;12.26
13497;BMP180;6820;49.374;8.452;2023-03-08T02:39:47;99064.16;;;12.25
13497;BMP180;6820;49.374;8.452;2023-03-08T02:43:48;99060.78;;;12.25
13497;BMP180;6820;49.374;8.452;2023-03-08T02:47:50;99058.13;;;12.22
13497;BMP180;6820;49.374;8.452;2023-03-08T02:51:52;99061.69;;;12.27
13497;BMP180;6820;49.374;8.452;2023-03-08T02:55:54;99063.50;;;12.31
13497;BMP180;6820;49.374;8.452;2023-03-08T02:59:56;99053.34;;;12.31
13497;BMP180;6820;49.374;8.452;2023-03-08T03:04:00;99055.84;;;12.29
13497;BMP180;6820;49.374;8.452;2023-03-08T03:08:02;99038.88;;;12.28
13497;BMP180;6820;49.374;8.452;2023-03-08T03:12:04;99042.28;;;12.29
13497;BMP180;6820;49.374;8.452;2023-03-08T03:16:12;99031.97;;;12.24
13497;BMP180;6820;49.374;8.452;2023-03-08T03:20:14;99049.03;;;12.28
13497;BMP180;6820;49.374;8.452;2023-03-08T03:24:16;99025.38;;;12.29
13497;BMP180;6820;49.374;8.452;2023-03-08T03:28:26;99028.94;;;12.34
13497;BMP180;6820;49.374;8.452;2023-03-08T03:32:28;99033.19;;;12.35
13497;BMP180;6820;49.374;8.452;2023-03-08T03:36:29;99028.09;;;12.35
13497;BMP180;6820;49.374;8.452;2023-03-08T03:40:32;99023.03;;;12.35
13497;BMP180;6820;49.374;8.452;2023-03-08T03:44:36;99013.78;;;12.37
13497;BMP180;6820;49.374;8.452;2023-03-08T03:48:39;99002.78;;;12.37
13497;BMP180;6820;49.374;8.452;2023-03-08T03:52:42;98989.16;;;12.35
13497;BMP180;6820;49.374;8.452;2023-03-08T03:56:44;98992.47;;;12.32
13497;BMP180;6820;49.374;8.452;2023-03-08T04:00:46;98997.44;;;12.29
13497;BMP180;6820;49.374;8.452;2023-03-08T04:04:57;99000.00;;;12.31
13497;BMP180;6820;49.374;8.452;2023-03-08T04:09:06;98989.00;;;12.30
13497;BMP180;6820;49.374;8.452;2023-03-08T04:13:11;98994.16;;;12.33
13497;BMP180;6820;49.374;8.452;2023-03-08T04:17:15;98994.25;;;12.36
13497;BMP180;6820;49.374;8.452;2023-03-08T04:21:26;98995.91;;;12.34
13497;BMP180;6820;49.374;8.452;2023-03-08T04:25:29;98989.06;;;12.32
13497;BMP180;6820;49.374;8.452;2023-03-08T04:29:33;98984.00;;;12.33
13497;BMP180;6820;49.374;8.452;2023-03-08T04:33:36;98972.03;;;12.29
13497;BMP180;6820;49.374;8.452;2023-03-08T04:37:38;98958.50;;;12.29
13497;BMP180;6820;49.374;8.452;2023-03-08T04:41:45;98958.44;;;12.27
13497;BMP180;6820;49.374;8.452;2023-03-08T04:46:00;98957.41;;;12.22
13497;BMP180;6820;49.374;8.452;2023-03-08T04:50:02;98950.53;;;12.18
13497;BMP180;6820;49.374;8.452;2023-03-08T04:54:06;98941.25;;;12.20
13497;BMP180;6820;49.374;8.452;2023-03-08T04:58:11;98947.25;;;12.22
13497;BMP180;6820;49.374;8.452;2023-03-08T05:02:13;98930.34;;;12.23
13497;BMP180;6820;49.374;8.452;2023-03-08T05:06:16;98924.47;;;12.24
13497;BMP180;6820;49.374;8.452;2023-03-08T05:10:19;98923.69;;;12.26
13497;BMP180;6820;49.374;8.452;2023-03-08T05:14:21;98931.31;;;12.26
13497;BMP180;6820;49.374;8.452;2023-03-08T05:18:23;98932.97;;;12.26
13497;BMP180;6820;49.374;8.452;2023-03-08T05:22:25;98929.56;;;12.25
13497;BMP180;6820;49.374;8.452;2023-03-08T05:26:30;98930.41;;;12.24
13497;BMP180;6820;49.374;8.452;2023-03-08T05:30:32;98932.03;;;12.22
13497;BMP180;6820;49.374;8.452;2023-03-08T05:34:33;98933.78;;;12.23
13497;BMP180;6820;49.374;8.452;2023-03-08T05:38:38;98918.63;;;12.26
13497;BMP180;6820;49.374;8.452;2023-03-08T05:42:42;98918.75;;;12.31
13497;BMP180;6820;49.374;8.452;2023-03-08T05:46:44;98892.47;;;12.29
13497;BMP180;6820;49.374;8.452;2023-03-08T05:50:46;98890.72;;;12.28
13497;BMP180;6820;49.374;8.452;2023-03-08T05:54:48;98891.56;;;12.28
13497;BMP180;6820;49.374;8.452;2023-03-08T05:58:54;98885.69;;;12.29
13497;BMP180;6820;49.374;8.452;2023-03-08T06:02:59;98877.34;;;12.33
13497;BMP180;6820;49.374;8.452;2023-03-08T06:07:01;98879.84;;;12.32
13497;BMP180;6820;49.374;8.452;2023-03-08T06:11:08;98868.88;;;12.33
13497;BMP180;6820;49.374;8.452;2023-03-08T06:15:11;98856.22;;;12.34
13497;BMP180;6820;49.374;8.452;2023-03-08T06:19:14;98848.63;;;12.34
13497;BMP180;6820;49.374;8.452;2023-03-08T06:23:16;98857.19;;;12.38
13497;BMP180;6820;49.374;8.452;2023-03-08T06:27:18;98853.13;;;12.44
13497;BMP180;6820;49.374;8.452;2023-03-08T06:31:22;98843.09;;;12.48
13497;BMP180;6820;49.374;8.452;2023-03-08T06:35:25;98843.19;;;12.51
13497;BMP180;6820;49.374;8.452;2023-03-08T06:39:31;98827.88;;;12.50
13497;BMP180;6820;49.374;8.452;2023-03-08T06:43:35;98827.88;;;12.48
13497;BMP180;6820;49.374;8.452;2023-03-08T06:47:37;98821.09;;;12.49
13497;BMP180;6820;49.374;8.452;2023-03-08T06:51:39;98814.25;;;12.47
13497;BMP180;6820;49.374;8.452;2023-03-08T06:55:40;98814.31;;;12.48
13497;BMP180;6820;49.374;8.452;2023-03-08T06:59:42;98822.72;;;12.47
13497;BMP180;6820;49.374;8.452;2023-03-08T07:03:44;98799.09;;;12.49
13497;BMP180;6820;49.374;8.452;2023-03-08T07:07:48;98798.38;;;12.53
13497;BMP180;6820;49.374;8.452;2023-03-08T07:11:50;98791.75;;;12.58
13497;BMP180;6820;49.374;8.452;2023-03-08T07:15:51;98786.75;;;12.61
13497;BMP180;6820;49.374;8.452;2023-03-08T07:19:53;98784.22;;;12.63
13497;BMP180;6820;49.374;8.452;2023-03-08T07:23:55;98786.69;;;12.60
13497;BMP180;6820;49.374;8.452;2023-03-08T07:27:58;98771.28;;;12.54
13497;BMP180;6820;49.374;8.452;2023-03-08T07:32:00;98754.97;;;12.46
13497;BMP180;6820;49.374;8.452;2023-03-08T07:36:02;98757.44;;;12.45
13497;BMP180;6820;49.374;8.452;2023-03-08T07:40:04;98748.66;;;12.32
13497;BMP180;6820;49.374;8.452;2023-03-08T07:44:07;98745.06;;;12.26
13497;BMP180;6820;49.374;8.452;2023-03-08T07:48:08;98746.72;;;12.24
13497;BMP180;6820;49.374;8.452;2023-03-08T07:52:10;98750.66;;;12.15
13497;BMP180;6820;49.374;8.452;2023-03-08T07:56:11;98738.56;;;12.05
13497;BMP180;6820;49.374;8.452;2023-03-08T08:00:13;98740.19;;;12.03
13497;BMP180;6820;49.374;8.452;2023-03-08T08:04:15;98725.66;;;11.99
13497;BMP180;6820;49.374;8.452;2023-03-08T08:08:17;98711.25;;;11.98
13497;BMP180;6820;49.374;8.452;2023-03-08T08:12:18;98693.66;;;12.04
13497;BMP180;6820;49.374;8.452;2023-03-08T08:16:20;98680.81;;;11.98
13497;BMP180;6820;49.374;8.452;2023-03-08T08:20:22;98670.41;;;11.89
13497;BMP180;6820;49.374;8.452;2023-03-08T08:24:26;98678.78;;;11.87
13497;BMP180;6820;49.374;8.452;2023-03-08T08:28:28;98660.81;;;11.81
13497;BMP180;6820;49.374;8.452;2023-03-08T08:32:29;98649.81;;;11.79
13497;BMP180;6820;49.374;8.452;2023-03-08T08:36:33;98646.56;;;11.84
13497;BMP180;6820;49.374;8.452;2023-03-08T08:40:35;98642.97;;;11.76
13497;BMP180;6820;49.374;8.452;2023-03-08T08:44:37;98649.41;;;11.65
13497;BMP180;6820;49.374;8.452;2023-03-08T08:48:39;98635.88;;;11.65
13497;BMP180;6820;49.374;8.452;2023-03-08T08:52:41;98621.50;;;11.65
13497;BMP180;6820;49.374;8.452;2023-03-08T08:56:42;98606.88;;;11.57
13497;BMP180;6820;49.374;8.452;2023-03-08T09:00:45;98591.59;;;11.56
13497;BMP180;6820;49.374;8.452;2023-03-08T09:04:46;98608.69;;;11.61
13497;BMP180;6820;49.374;8.452;2023-03-08T09:08:49;98599.31;;;11.58
13497;BMP180;6820;49.374;8.452;2023-03-08T09:12:51;98593.22;;;11.54
13497;BMP180;6820;49.374;8.452;2023-03-08T09:16:53;98587.28;;;11.52
13497;BMP180;6820;49.374;8.452;2023-03-08T09:20:54;98575.16;;;11.42
13497;BMP180;6820;49.374;8.452;2023-03-08T09:24:56;98564.19;;;11.43
13497;BMP180;6820;49.374;8.452;2023-03-08T09:28:59;98559.34;;;11.50
13497;BMP180;6820;49.374;8.452;2023-03-08T09:33:05;98551.66;;;11.47
13497;BMP180;6820;49.374;8.452;2023-03-08T09:37:08;98530.59;;;11.50
13497;BMP180;6820;49.374;8.452;2023-03-08T09:45:26;98505.16;;;11.47
13497;BMP180;6820;49.374;8.452;2023-03-08T09:49:30;98502.22;;;11.35
13497;BMP180;6820;49.374;8.452;2023-03-08T09:53:42;98512.28;;;11.32
13497;BMP180;6820;49.374;8.452;2023-03-08T09:57:50;98514.81;;;11.32
13497;BMP180;6820;49.374;8.452;2023-03-08T10:10:40;98475.44;;;11.43
13497;BMP180;6820;49.374;8.452;2023-03-08T10:14:49;98472.25;;;11.50
13497;BMP180;6820;49.374;8.452;2023-03-08T10:23:17;98470.38;;;11.73
13497;BMP180;6820;49.374;8.452;2023-03-08T10:27:27;98463.75;;;11.80
13497;BMP180;6820;49.374;8.452;2023-03-08T10:31:31;98457.25;;;11.89
13497;BMP180;6820;49.374;8.452;2023-03-08T10:40:00;98444.72;;;11.95
13497;BMP180;6820;49.374;8.452;2023-03-08T10:44:11;98439.84;;;12.02
13497;BMP180;6820;49.374;8.452;2023-03-08T10:48:19;98431.56;;;12.11
13497;BMP180;6820;49.374;8.452;2023-03-08T10:52:26;98435.03;;;12.14
13497;BMP180;6820;49.374;8.452;2023-03-08T10:56:40;98415.19;;;12.33
13497;BMP180;6820;49.374;8.452;2023-03-08T11:00:51;98405.91;;;12.35
13497;BMP180;6820;49.374;8.452;2023-03-08T11:04:57;98401.75;;;12.39
13497;BMP180;6820;49.374;8.452;2023-03-08T11:09:01;98403.69;;;12.48
13497;BMP180;6820;49.374;8.452;2023-03-08T11:17:27;98401.09;;;12.83
13497;BMP180;6820;49.374;8.452;2023-03-08T11:26:03;98397.41;;;13.09
13497;BMP180;6820;49.374;8.452;2023-03-08T11:30:19;98402.34;;;13.03
13497;BMP180;6820;49.374;8.452;2023-03-08T11:34:44;98390.47;;;13.02
13497;BMP180;6820;49.374;8.452;2023-03-08T11:39:05;98394.84;;;13.09
13497;BMP180;6820;49.374;8.452;2023-03-08T11:51:56;98390.56;;;13.07
13497;BMP180;6820;49.374;8.452;2023-03-08T11:56:09;98383.06;;;13.14
13497;BMP180;6820;49.374;8.452;2023-03-08T12:00:25;98379.97;;;13.30
13497;BMP180;6820;49.374;8.452;2023-03-08T12:08:38;98364.56;;;13.21
13497;BMP180;6820;49.374;8.452;2023-03-08T12:12:47;98361.31;;;13.29
13497;BMP180;6820;49.374;8.452;2023-03-08T12:16:53;98363.91;;;13.31
13497;BMP180;6820;49.374;8.452;2023-03-08T12:21:12;98357.28;;;13.39
13497;BMP180;6820;49.374;8.452;2023-03-08T12:29:31;98355.81;;;13.52
13497;BMP180;6820;49.374;8.452;2023-03-08T12:33:35;98325.53;;;13.67
13497;BMP180;6820;49.374;8.452;2023-03-08T12:37:37;98323.28;;;13.83
13497;BMP180;6820;49.374;8.452;2023-03-08T12:41:39;98324.56;;;14.10
13497;BMP180;6820;49.374;8.452;2023-03-08T12:46:07;98327.38;;;14.31
13497;BMP180;6820;49.374;8.452;2023-03-08T12:50:09;98322.00;;;14.73
13497;BMP180;6820;49.374;8.452;2023-03-08T12:54:20;98312.81;;;14.86
13497;BMP180;6820;49.374;8.452;2023-03-08T12:58:23;98308.59;;;14.88
13497;BMP180;6820;49.374;8.452;2023-03-08T13:02:30;98318.13;;;15.05
13497;BMP180;6820;49.374;8.452;2023-03-08T13:19:17;98321.59;;;15.08
13497;BMP180;6820;49.374;8.452;2023-03-08T13:23:30;98306.28;;;15.08
13497;BMP180;6820;49.374;8.452;2023-03-08T13:28:09;98313.94;;;15.08
13497;BMP180;6820;49.374;8.452;2023-03-08T13:32:17;98312.31;;;15.13
13497;BMP180;6820;49.374;8.452;2023-03-08T13:36:37;98301.38;;;15.23
13497;BMP180;6820;49.374;8.452;2023-03-08T13:40:50;98313.41;;;15.40
13497;BMP180;6820;49.374;8.452;2023-03-08T13:45:03;98316.06;;;15.51
13497;BMP180;6820;49.374;8.452;2023-03-08T13:49:12;98326.31;;;15.53
13497;BMP180;6820;49.374;8.452;2023-03-08T13:53:18;98333.13;;;15.53
13497;BMP180;6820;49.374;8.452;2023-03-08T13:57:31;98327.97;;;15.47
13497;BMP180;6820;49.374;8.452;2023-03-08T14:01:45;98307.50;;;15.41
13497;BMP180;6820;49.374;8.452;2023-03-08T14:05:48;98293.88;;;15.42
13497;BMP180;6820;49.374;8.452;2023-03-08T14:09:50;98294.81;;;15.50
13497;BMP180;6820;49.374;8.452;2023-03-08T14:13:53;98283.81;;;15.54
13497;BMP180;6820;49.374;8.452;2023-03-08T14:17:56;98295.78;;;15.64
13497;BMP180;6820;49.374;8.452;2023-03-08T14:22:07;98291.63;;;15.78
13497;BMP180;6820;49.374;8.452;2023-03-08T14:26:32;98295.97;;;15.87
13497;BMP180;6820;49.374;8.452;2023-03-08T14:30:45;98297.72;;;15.94
13497;BMP180;6820;49.374;8.452;2023-03-08T14:34:47;98294.38;;;16.00
13497;BMP180;6820;49.374;8.452;2023-03-08T14:38:49;98288.34;;;15.96
13497;BMP180;6820;49.374;8.452;2023-03-08T14:42:53;98290.88;;;15.93
13497;BMP180;6820;49.374;8.452;2023-03-08T14:46:55;98265.34;;;15.93
13497;BMP180;6820;49.374;8.452;2023-03-08T14:51:24;98263.69;;;15.94
13497;BMP180;6820;49.374;8.452;2023-03-08T14:55:32;98252.56;;;15.89
13497;BMP180;6820;49.374;8.452;2023-03-08T14:59:38;98251.72;;;15.93
13497;BMP180;6820;49.374;8.452;2023-03-08T15:03:40;98256.88;;;15.99
13497;BMP180;6820;49.374;8.452;2023-03-08T15:07:43;98251.81;;;16.06
13497;BMP180;6820;49.374;8.452;2023-03-08T15:11:47;98239.97;;;16.14
13497;BMP180;6820;49.374;8.452;2023-03-08T15:15:49;98232.31;;;16.17
13497;BMP180;6820;49.374;8.452;2023-03-08T15:19:51;98232.34;;;16.20
13497;BMP180;6820;49.374;8.452;2023-03-08T15:23:53;98228.13;;;16.23
13497;BMP180;6820;49.374;8.452;2023-03-08T15:27:55;98224.72;;;16.29
13497;BMP180;6820;49.374;8.452;2023-03-08T15:31:57;98231.59;;;16.37
13497;BMP180;6820;49.374;8.452;2023-03-08T15:35:59;98221.41;;;16.50
13497;BMP180;6820;49.374;8.452;2023-03-08T15:40:01;98220.56;;;16.60
13497;BMP180;6820;49.374;8.452;2023-03-08T15:44:03;98201.84;;;16.67
13497;BMP180;6820;49.374;8.452;2023-03-08T15:48:07;98199.28;;;16.67
13497;BMP180;6820;49.374;8.452;2023-03-08T15:52:11;98191.59;;;16.66
13497;BMP180;6820;49.374;8.452;2023-03-08T15:56:13;98219.72;;;16.63
13497;BMP180;6820;49.374;8.452;2023-03-08T16:00:17;98212.03;;;16.45
13497;BMP180;6820;49.374;8.452;2023-03-08T16:04:19;98230.69;;;16.23
13497;BMP180;6820;49.374;8.452;2023-03-08T16:08:21;98230.53;;;16.06
13497;BMP180;6820;49.374;8.452;2023-03-08T16:12:25;98238.16;;;15.98
13497;BMP180;6820;49.374;8.452;2023-03-08T16:16:27;98236.38;;;15.88
13497;BMP180;6820;49.374;8.452;2023-03-08T16:20:45;98230.34;;;15.78
13497;BMP180;6820;49.374;8.452;2023-03-08T16:24:47;98236.28;;;15.71
13497;BMP180;6820;49.374;8.452;2023-03-08T16:28:48;98231.16;;;15.69
13497;BMP180;6820;49.374;8.452;2023-03-08T16:32:51;98215.81;;;15.65
13497;BMP180;6820;49.374;8.452;2023-03-08T16:36:53;98231.13;;;15.65
13497;BMP180;6820;49.374;8.452;2023-03-08T16:40:59;98221.75;;;15.64
13497;BMP180;6820;49.374;8.452;2023-03-08T16:45:14;98218.38;;;15.68
13497;BMP180;6820;49.374;8.452;2023-03-08T16:49:18;98223.44;;;15.60
13497;BMP180;6820;49.374;8.452;2023-03-08T16:53:20;98231.03;;;15.53
13497;BMP180;6820;49.374;8.452;2023-03-08T16:57:22;98231.03;;;15.53
13497;BMP180;6820;49.374;8.452;2023-03-08T17:01:24;98219.94;;;15.48
13497;BMP180;6820;49.374;8.452;2023-03-08T17:05:26;98215.63;;;15.43
13497;BMP180;6820;49.374;8.452;2023-03-08T17:09:27;98215.66;;;15.44
13497;BMP180;6820;49.374;8.452;2023-03-08T17:13:30;98213.97;;;15.48
13497;BMP180;6820;49.374;8.452;2023-03-08T17:17:32;98220.81;;;15.53
13497;BMP180;6820;49.374;8.452;2023-03-08T17:21:34;98217.47;;;15.60
13497;BMP180;6820;49.374;8.452;2023-03-08T17:25:39;98211.53;;;15.64
13497;BMP180;6820;49.374;8.452;2023-03-08T17:29:41;98215.84;;;15.68
13497;BMP180;6820;49.374;8.452;2023-03-08T17:33:43;98213.31;;;15.71
13497;BMP180;6820;49.374;8.452;2023-03-08T17:37:45;98211.63;;;15.73
13497;BMP180;6820;49.374;8.452;2023-03-08T17:41:47;98209.06;;;15.77
13497;BMP180;6820;49.374;8.452;2023-03-08T17:46:07;98192.94;;;15.83
13497;BMP180;6820;49.374;8.452;2023-03-08T17:50:10;98194.66;;;15.84
13497;BMP180;6820;49.374;8.452;2023-03-08T17:54:13;98198.06;;;15.85
13497;BMP180;6820;49.374;8.452;2023-03-08T17:58:15;98213.38;;;15.85
13497;BMP180;6820;49.374;8.452;2023-03-08T18:02:17;98222.75;;;15.86
13497;BMP180;6820;49.374;8.452;2023-03-08T18:06:39;98228.69;;;15.85
13497;BMP180;6820;49.374;8.452;2023-03-08T18:10:41;98224.44;;;15.84
13497;BMP180;6820;49.374;8.452;2023-03-08T18:14:43;98236.38;;;15.87
13497;BMP180;6820;49.374;8.452;2023-03-08T18:18:46;98238.09;;;15.86
13497;BMP180;6820;49.374;8.452;2023-03-08T18:22:50;98224.44;;;15.84
13497;BMP180;6820;49.374;8.452;2023-03-08T18:26:52;98222.75;;;15.81
13497;BMP180;6820;49.374;8.452;2023-03-08T18:30:54;98216.72;;;15.77
13497;BMP180;6820;49.374;8.452;2023-03-08T18:34:56;98218.41;;;15.75
13497;BMP180;6820;49.374;8.452;2023-03-08T18:38:57;98226.09;;;15.77
13497;BMP180;6820;49.374;8.452;2023-03-08T18:42:59;98222.69;;;15.78
13497;BMP180;6820;49.374;8.452;2023-03-08T18:47:01;98228.63;;;15.75
13497;BMP180;6820;49.374;8.452;2023-03-08T18:51:03;98224.34;;;15.71
13497;BMP180;6820;49.374;8.452;2023-03-08T18:55:04;98215.81;;;15.69
13497;BMP180;6820;49.374;8.452;2023-03-08T18:59:06;98217.53;;;15.69
13497;BMP180;6820;49.374;8.452;2023-03-08T19:03:08;98214.13;;;15.68
13497;BMP180;6820;49.374;8.452;2023-03-08T19:07:10;98204.78;;;15.69
13497;BMP180;6820;49.374;8.452;2023-03-08T19:11:20;98197.97;;;15.68
13497;BMP180;6820;49.374;8.452;2023-03-08T19:15:22;98214.13;;;15.70
13497;BMP180;6820;49.374;8.452;2023-03-08T19:19:23;98223.50;;;15.72
13497;BMP180;6820;49.374;8.452;2023-03-08T19:23:26;98219.28;;;15.73
13497;BMP180;6820;49.374;8.452;2023-03-08T19:27:27;98223.53;;;15.75
13497;BMP180;6820;49.374;8.452;2023-03-08T19:31:29;98240.53;;;15.70
13497;BMP180;6820;49.374;8.452;2023-03-08T19:35:33;98242.22;;;15.68
13497;BMP180;6820;49.374;8.452;2023-03-08T19:39:36;98255.84;;;15.67
13497;BMP180;6820;49.374;8.452;2023-03-08T19:43:38;98254.94;;;15.67
13497;BMP180;6820;49.374;8.452;2023-03-08T19:47:40;98248.19;;;15.72
13497;BMP180;6820;49.374;8.452;2023-03-08T19:51:42;98258.41;;;15.72
13497;BMP180;6820;49.374;8.452;2023-03-08T19:55:51;98269.44;;;15.69
13497;BMP180;6820;49.374;8.452;2023-03-08T19:59:53;98249.88;;;15.68
13497;BMP180;6820;49.374;8.452;2023-03-08T20:03:58;98228.63;;;15.75
13497;BMP180;6820;49.374;8.452;2023-03-08T20:07:59;98256.72;;;15.75
13497;BMP180;6820;49.374;8.452;2023-03-08T20:12:01;98240.56;;;15.76
13497;BMP180;6820;49.374;8.452;2023-03-08T20:16:03;98249.09;;;15.80
13497;BMP180;6820;49.374;8.452;2023-03-08T20:20:05;98250.81;;;15.81
13497;BMP180;6820;49.374;8.452;2023-03-08T20:24:07;98264.41;;;15.80
13497;BMP180;6820;49.374;8.452;2023-03-08T20:28:09;98249.94;;;15.80
13497;BMP180;6820;49.374;8.452;2023-03-08T20:32:11;98246.53;;;15.78
13497;BMP180;6820;49.374;8.452;2023-03-08T20:36:14;98238.88;;;15.78
13497;BMP180;6820;49.374;8.452;2023-03-08T20:40:16;98239.69;;;15.73
13497;BMP180;6820;49.374;8.452;2023-03-08T20:44:18;98237.94;;;15.66
13497;BMP180;6820;49.374;8.452;2023-03-08T20:48:19;98242.97;;;15.58
13497;BMP180;6820;49.374;8.452;2023-03-08T20:52:21;98242.97;;;15.57
13497;BMP180;6820;49.374;8.452;2023-03-08T20:56:24;98239.56;;;15.56
13497;BMP180;6820;49.374;8.452;2023-03-08T21:00:26;98237.91;;;15.60
13497;BMP180;6820;49.374;8.452;2023-03-08T21:04:28;98239.56;;;15.58
13497;BMP180;6820;49.374;8.452;2023-03-08T21:08:30;98229.41;;;15.59
13497;BMP180;6820;49.374;8.452;2023-03-08T21:12:31;98236.22;;;15.62
13497;BMP180;6820;49.374;8.452;2023-03-08T21:16:33;98228.56;;;15.62
13497;BMP180;6820;49.374;8.452;2023-03-08T21:20:36;98215.78;;;15.63
13497;BMP180;6820;49.374;8.452;2023-03-08T21:24:38;98206.44;;;15.64
13497;BMP180;6820;49.374;8.452;2023-03-08T21:28:40;98223.50;;;15.68
13497;BMP180;6820;49.374;8.452;2023-03-08T21:32:41;98215.00;;;15.72
13497;BMP180;6820;49.374;8.452;2023-03-08T21:36:43;98214.19;;;15.79
13497;BMP180;6820;49.374;8.452;2023-03-08T21:40:45;98232.09;;;15.82
13497;BMP180;6820;49.374;8.452;2023-03-08T21:44:46;98226.16;;;15.84
13497;BMP180;6820;49.374;8.452;2023-03-08T21:48:48;98233.81;;;15.88
13497;BMP180;6820;49.374;8.452;2023-03-08T21:52:50;98222.78;;;15.89
13497;BMP180;6820;49.374;8.452;2023-03-08T21:56:52;98221.91;;;15.90
13497;BMP180;6820;49.374;8.452;2023-03-08T22:00:53;98215.97;;;15.93
13497;BMP180;6820;49.374;8.452;2023-03-08T22:04:55;98217.69;;;15.95
13497;BMP180;6820;49.374;8.452;2023-03-08T22:08:57;98208.34;;;15.97
13497;BMP180;6820;49.374;8.452;2023-03-08T22:12:59;98203.25;;;16.00
13497;BMP180;6820;49.374;8.452;2023-03-08T22:17:01;98199.00;;;16.01
13497;BMP180;6820;49.374;8.452;2023-03-08T22:21:03;98192.19;;;16.00
13497;BMP180;6820;49.374;8.452;2023-03-08T22:25:06;98180.25;;;15.97
13497;BMP180;6820;49.374;8.452;2023-03-08T22:29:07;98173.41;;;15.90
13497;BMP180;6820;49.374;8.452;2023-03-08T22:33:09;98172.53;;;15.84
13497;BMP180;6820;49.374;8.452;2023-03-08T22:37:12;98181.91;;;15.86
13497;BMP180;6820;49.374;8.452;2023-03-08T22:41:22;98174.25;;;15.88
13497;BMP180;6820;49.374;8.452;2023-03-08T22:45:25;98163.22;;;15.92
13497;BMP180;6820;49.374;8.452;2023-03-08T22:49:26;98146.19;;;15.95
13497;BMP180;6820;49.374;8.452;2023-03-08T22:53:28;98132.59;;;16.01
13497;BMP180;6820;49.374;8.452;2023-03-08T22:57:30;98117.28;;;16.07
13497;BMP180;6820;49.374;8.452;2023-03-08T23:01:31;98103.69;;;16.12
13497;BMP180;6820;49.374;8.452;2023-03-08T23:05:33;98089.25;;;16.17
13497;BMP180;6820;49.374;8.452;2023-03-08T23:09:35;98076.50;;;16.20
13497;BMP180;6820;49.374;8.452;2023-03-08T23:13:38;98066.28;;;16.23
13497;BMP180;6820;49.374;8.452;2023-03-08T23:17:39;98062.88;;;16.24
13497;BMP180;6820;49.374;8.452;2023-03-08T23:21:41;98051.81;;;16.25
13497;BMP180;6820;49.374;8.452;2023-03-08T23:25:44;98057.78;;;16.21
13497;BMP180;6820;49.374;8.452;2023-03-08T23:29:46;98046.69;;;16.13
13497;BMP180;6820;49.374;8.452;2023-03-08T23:33:48;98053.44;;;16.08
13497;BMP180;6820;49.374;8.452;2023-03-08T23:37:50;98055.13;;;16.12
13497;BMP180;6820;49.374;8.452;2023-03-08T23:41:52;98067.13;;;16.13
13497;BMP180;6820;49.374;8.452;2023-03-08T23:45:53;98085.00;;;16.13
13497;BMP180;6820;49.374;8.452;2023-03-08T23:49:55;98090.91;;;16.05
13497;BMP180;6820;49.374;8.452;2023-03-08T23:53:59;98099.41;;;16.07
13497;BMP180;6820;49.374;8.452;2023-03-08T23:58:01;98102.81;;;16.07
